createdAt,value
2023-07-30T00:00:52.798Z,18.10
2023-07-30T00:02:54.791Z,18.00
2023-07-30T00:04:57.122Z,18.00
2023-07-30T00:06:58.909Z,18.00
2023-07-30T00:09:00.686Z,17.90
2023-07-30T00:11:02.822Z,17.90
2023-07-30T00:13:04.618Z,17.80
2023-07-30T00:15:06.729Z,17.80
2023-07-30T00:17:08.553Z,17.80
2023-07-30T00:19:11.684Z,17.80
2023-07-30T00:21:13.477Z,17.70
2023-07-30T00:23:15.276Z,17.60
2023-07-30T00:25:17.067Z,17.50
2023-07-30T00:27:20.973Z,17.40
2023-07-30T00:29:24.366Z,17.40
2023-07-30T00:31:26.181Z,17.30
2023-07-30T00:33:28.035Z,17.20
2023-07-30T00:35:29.919Z,17.30
2023-07-30T00:37:31.704Z,17.30
2023-07-30T00:39:33.522Z,17.30
2023-07-30T00:41:35.434Z,17.30
2023-07-30T00:43:37.420Z,17.30
2023-07-30T00:45:41.231Z,17.30
2023-07-30T00:47:43.338Z,17.40
2023-07-30T00:49:45.160Z,17.30
2023-07-30T00:51:47.015Z,17.30
2023-07-30T00:53:49.321Z,17.20
2023-07-30T00:55:51.179Z,17.20
2023-07-30T00:57:53.235Z,17.30
2023-07-30T00:59:55.471Z,17.30
2023-07-30T01:01:58.623Z,17.20
2023-07-30T01:04:00.458Z,17.30
2023-07-30T01:06:02.439Z,17.30
2023-07-30T01:08:04.323Z,17.40
2023-07-30T01:10:06.426Z,17.30
2023-07-30T01:12:08.939Z,17.30
2023-07-30T01:14:11.104Z,17.30
2023-07-30T01:16:12.900Z,17.20
2023-07-30T01:18:14.892Z,17.10
2023-07-30T01:20:16.716Z,17.10
2023-07-30T01:22:18.498Z,17.10
2023-07-30T01:24:20.330Z,17.00
2023-07-30T01:26:25.874Z,17.00
2023-07-30T01:28:28.426Z,16.90
2023-07-30T01:30:49.683Z,16.90
2023-07-30T01:32:53.332Z,17.00
2023-07-30T01:34:55.812Z,17.00
2023-07-30T01:36:59.139Z,17.20
2023-07-30T01:39:01.251Z,17.10
2023-07-30T01:41:03.045Z,17.10
2023-07-30T01:43:04.886Z,17.00
2023-07-30T01:45:07.146Z,16.90
2023-07-30T01:47:08.939Z,16.90
2023-07-30T01:49:10.808Z,16.80
2023-07-30T01:51:12.590Z,16.80
2023-07-30T01:53:14.630Z,16.80
2023-07-30T01:55:16.471Z,16.80
2023-07-30T01:57:18.326Z,16.90
2023-07-30T01:59:20.126Z,16.80
2023-07-30T02:01:22.018Z,16.80
2023-07-30T02:03:23.983Z,16.60
2023-07-30T02:05:25.820Z,16.50
2023-07-30T02:07:27.648Z,16.50
2023-07-30T02:09:29.433Z,16.50
2023-07-30T02:11:31.213Z,16.50
2023-07-30T02:13:33.045Z,16.50
2023-07-30T02:15:34.894Z,16.50
2023-07-30T02:17:36.727Z,16.50
2023-07-30T02:19:38.578Z,16.50
2023-07-30T02:21:43.808Z,16.50
2023-07-30T02:23:45.606Z,16.50
2023-07-30T02:25:47.493Z,16.40
2023-07-30T02:27:49.272Z,16.40
2023-07-30T02:29:51.064Z,16.50
2023-07-30T02:31:52.953Z,16.50
2023-07-30T02:33:54.807Z,16.50
2023-07-30T02:35:56.579Z,16.50
2023-07-30T02:37:58.441Z,16.50
2023-07-30T02:40:00.770Z,16.60
2023-07-30T02:42:02.552Z,16.60
2023-07-30T02:44:04.441Z,16.60
2023-07-30T02:46:08.158Z,16.60
2023-07-30T02:48:10.053Z,16.60
2023-07-30T02:50:12.148Z,16.70
2023-07-30T02:52:13.955Z,16.80
2023-07-30T02:54:17.353Z,16.80
2023-07-30T02:56:19.162Z,17.00
2023-07-30T02:58:20.934Z,17.70
2023-07-30T03:00:22.720Z,18.30
2023-07-30T03:02:24.686Z,18.60
2023-07-30T03:04:26.719Z,18.90
2023-07-30T03:06:28.504Z,19.10
2023-07-30T03:08:30.333Z,19.10
2023-07-30T03:10:33.336Z,18.60
2023-07-30T03:12:35.110Z,18.50
2023-07-30T03:14:37.183Z,18.30
2023-07-30T03:16:39.004Z,17.90
2023-07-30T03:18:40.847Z,17.70
2023-07-30T03:20:42.696Z,17.60
2023-07-30T03:22:44.487Z,17.50
2023-07-30T03:24:50.149Z,17.50
2023-07-30T03:26:51.969Z,17.50
2023-07-30T03:28:53.788Z,17.60
2023-07-30T03:30:55.634Z,17.60
2023-07-30T03:32:57.551Z,17.70
2023-07-30T03:34:59.353Z,17.70
2023-07-30T03:37:01.809Z,17.80
2023-07-30T03:39:03.860Z,17.90
2023-07-30T03:41:06.007Z,17.80
2023-07-30T03:43:07.789Z,18.00
2023-07-30T03:45:09.787Z,18.00
2023-07-30T03:47:11.564Z,18.20
2023-07-30T03:49:13.376Z,18.30
2023-07-30T03:51:15.261Z,18.40
2023-07-30T03:53:17.054Z,18.40
2023-07-30T03:55:18.911Z,18.60
2023-07-30T03:57:20.716Z,18.50
2023-07-30T03:59:22.515Z,18.60
2023-07-30T04:01:24.339Z,18.60
2023-07-30T04:03:26.197Z,18.70
2023-07-30T04:05:28.081Z,18.70
2023-07-30T04:07:29.852Z,18.90
2023-07-30T04:09:31.662Z,18.90
2023-07-30T04:11:33.466Z,18.90
2023-07-30T04:13:35.532Z,18.90
2023-07-30T04:15:37.349Z,18.90
2023-07-30T04:17:39.298Z,18.90
2023-07-30T04:19:41.095Z,19.20
2023-07-30T04:21:43.002Z,19.30
2023-07-30T04:23:44.830Z,19.20
2023-07-30T04:25:46.631Z,19.20
2023-07-30T04:27:48.452Z,19.30
2023-07-30T04:29:50.275Z,19.40
2023-07-30T04:31:52.074Z,19.50
2023-07-30T04:33:53.892Z,19.60
2023-07-30T04:35:55.645Z,19.80
2023-07-30T04:37:57.532Z,19.90
2023-07-30T04:39:59.455Z,19.90
2023-07-30T04:42:01.239Z,20.00
2023-07-30T04:44:03.057Z,20.30
2023-07-30T04:46:06.192Z,20.40
2023-07-30T04:48:10.555Z,20.50
2023-07-30T04:50:12.385Z,20.60
2023-07-30T04:52:14.259Z,20.60
2023-07-30T04:54:16.188Z,20.60
2023-07-30T04:56:17.984Z,20.80
2023-07-30T04:58:19.792Z,20.70
2023-07-30T05:00:21.592Z,20.60
2023-07-30T05:02:23.433Z,20.70
2023-07-30T05:04:25.282Z,20.90
2023-07-30T05:06:27.077Z,20.90
2023-07-30T05:08:28.854Z,21.10
2023-07-30T05:10:30.684Z,21.20
2023-07-30T05:12:32.489Z,21.20
2023-07-30T05:14:34.302Z,21.30
2023-07-30T05:16:37.562Z,21.50
2023-07-30T05:18:39.400Z,21.50
2023-07-30T05:20:41.189Z,21.60
2023-07-30T05:22:43.059Z,21.70
2023-07-30T05:24:44.835Z,21.90
2023-07-30T05:26:46.604Z,21.90
2023-07-30T05:28:48.471Z,22.10
2023-07-30T05:30:50.263Z,22.20
2023-07-30T05:32:52.218Z,22.20
2023-07-30T05:34:54.179Z,22.30
2023-07-30T05:36:56.009Z,22.40
2023-07-30T05:39:00.418Z,22.50
2023-07-30T05:41:02.297Z,22.60
2023-07-30T05:43:05.299Z,22.60
2023-07-30T05:45:07.534Z,22.70
2023-07-30T05:47:09.380Z,22.80
2023-07-30T05:49:11.975Z,22.90
2023-07-30T05:51:13.771Z,22.90
2023-07-30T05:53:15.740Z,23.00
2023-07-30T05:55:17.712Z,23.10
2023-07-30T05:57:19.489Z,22.80
2023-07-30T05:59:23.591Z,23.10
2023-07-30T06:01:25.752Z,23.20
2023-07-30T06:03:27.644Z,23.20
2023-07-30T06:05:29.546Z,23.20
2023-07-30T06:07:31.377Z,23.40
2023-07-30T06:09:33.200Z,23.60
2023-07-30T06:11:35.086Z,23.70
2023-07-30T06:13:38.145Z,23.70
2023-07-30T06:15:40.115Z,23.60
2023-07-30T06:17:42.034Z,23.70
2023-07-30T06:19:43.838Z,23.70
2023-07-30T06:21:45.652Z,23.80
2023-07-30T06:23:47.471Z,23.80
2023-07-30T06:25:49.268Z,24.00
2023-07-30T06:27:51.139Z,24.10
2023-07-30T06:29:53.026Z,24.00
2023-07-30T06:31:54.852Z,24.10
2023-07-30T06:33:56.624Z,24.10
2023-07-30T06:35:58.477Z,24.20
2023-07-30T06:38:00.286Z,24.40
2023-07-30T06:40:05.062Z,24.40
2023-07-30T06:42:06.992Z,24.40
2023-07-30T06:44:09.727Z,24.10
2023-07-30T06:46:11.486Z,24.20
2023-07-30T06:48:13.348Z,24.50
2023-07-30T06:50:15.204Z,24.50
2023-07-30T06:52:17.014Z,24.50
2023-07-30T06:54:18.859Z,24.60
2023-07-30T06:56:20.643Z,24.40
2023-07-30T06:58:22.460Z,24.50
2023-07-30T07:00:24.316Z,24.60
2023-07-30T07:02:26.307Z,24.80
2023-07-30T07:04:28.177Z,24.70
2023-07-30T07:06:29.997Z,24.70
2023-07-30T07:08:31.859Z,24.80
2023-07-30T07:10:33.685Z,24.60
2023-07-30T07:12:35.512Z,24.80
2023-07-30T07:14:37.333Z,24.90
2023-07-30T07:16:39.193Z,24.90
2023-07-30T07:18:41.031Z,24.80
2023-07-30T07:20:42.830Z,25.00
2023-07-30T07:22:44.617Z,25.10
2023-07-30T07:24:46.452Z,25.30
2023-07-30T07:26:48.293Z,25.30
2023-07-30T07:28:50.101Z,25.50
2023-07-30T07:30:52.731Z,25.50
2023-07-30T07:32:54.909Z,25.50
2023-07-30T07:34:56.819Z,25.60
2023-07-30T07:36:58.669Z,25.40
2023-07-30T07:39:00.466Z,25.60
2023-07-30T07:41:02.777Z,25.50
2023-07-30T07:43:04.629Z,25.30
2023-07-30T07:45:07.363Z,25.30
2023-07-30T07:47:09.180Z,25.40
2023-07-30T07:49:11.022Z,25.60
2023-07-30T07:51:12.952Z,25.70
2023-07-30T07:53:14.763Z,25.80
2023-07-30T07:55:17.725Z,25.70
2023-07-30T07:57:19.576Z,25.70
2023-07-30T07:59:21.384Z,25.80
2023-07-30T08:01:23.267Z,25.90
2023-07-30T08:03:25.202Z,26.00
2023-07-30T08:05:27.860Z,25.80
2023-07-30T08:07:29.779Z,25.80
2023-07-30T08:09:31.840Z,25.90
2023-07-30T08:11:37.206Z,26.20
2023-07-30T08:13:40.368Z,25.80
2023-07-30T08:15:42.173Z,25.90
2023-07-30T08:17:43.985Z,25.90
2023-07-30T08:19:45.799Z,26.00
2023-07-30T08:21:47.596Z,25.70
2023-07-30T08:23:49.457Z,25.90
2023-07-30T08:25:51.362Z,26.00
2023-07-30T08:27:53.746Z,26.00
2023-07-30T08:29:55.615Z,26.40
2023-07-30T08:31:57.481Z,26.50
2023-07-30T08:33:59.508Z,25.80
2023-07-30T08:36:01.508Z,25.60
2023-07-30T08:38:03.351Z,25.90
2023-07-30T08:40:05.432Z,26.20
2023-07-30T08:42:07.249Z,26.10
2023-07-30T08:44:10.514Z,26.30
2023-07-30T08:46:12.569Z,26.10
2023-07-30T08:48:14.856Z,26.00
2023-07-30T08:50:16.955Z,26.00
2023-07-30T08:52:21.355Z,26.10
2023-07-30T08:54:23.616Z,26.10
2023-07-30T08:56:25.489Z,26.30
2023-07-30T08:58:28.719Z,26.70
2023-07-30T09:00:34.291Z,26.10
2023-07-30T09:02:36.741Z,26.30
2023-07-30T09:04:38.798Z,26.50
2023-07-30T09:06:41.025Z,26.60
2023-07-30T09:08:42.854Z,26.60
2023-07-30T09:10:44.686Z,26.50
2023-07-30T09:12:48.986Z,26.50
2023-07-30T09:14:52.023Z,26.50
2023-07-30T09:16:59.824Z,26.20
2023-07-30T09:19:01.661Z,25.80
2023-07-30T09:21:03.542Z,26.30
2023-07-30T09:23:06.185Z,26.80
2023-07-30T09:25:08.491Z,26.70
2023-07-30T09:27:10.347Z,26.60
2023-07-30T09:29:12.306Z,26.50
2023-07-30T09:31:36.878Z,26.80
2023-07-30T09:33:36.379Z,26.90
2023-07-30T09:35:40.506Z,26.90
2023-07-30T09:37:42.507Z,27.00
2023-07-30T09:39:44.501Z,26.80
2023-07-30T09:41:46.900Z,26.80
2023-07-30T09:43:48.697Z,27.10
2023-07-30T09:45:50.625Z,27.40
2023-07-30T09:47:54.084Z,27.70
2023-07-30T09:49:55.960Z,27.30
2023-07-30T09:51:57.781Z,27.30
2023-07-30T09:53:59.577Z,27.30
2023-07-30T09:56:02.597Z,27.10
2023-07-30T09:58:04.469Z,27.60
2023-07-30T10:00:07.265Z,27.80
2023-07-30T10:02:09.888Z,27.10
2023-07-30T10:04:12.194Z,27.30
2023-07-30T10:06:14.393Z,27.50
2023-07-30T10:08:22.692Z,27.70
2023-07-30T10:10:25.798Z,28.10
2023-07-30T10:12:31.924Z,28.10
2023-07-30T10:14:33.898Z,27.80
2023-07-30T10:16:35.840Z,28.00
2023-07-30T10:18:41.281Z,27.70
2023-07-30T10:20:52.841Z,27.60
2023-07-30T10:22:55.823Z,27.30
2023-07-30T10:25:02.005Z,27.10
2023-07-30T10:27:06.848Z,27.60
2023-07-30T10:29:19.054Z,27.90
2023-07-30T10:31:20.844Z,28.20
2023-07-30T10:33:22.621Z,28.80
2023-07-30T10:35:50.835Z,28.50
2023-07-30T10:37:52.733Z,28.40
2023-07-30T10:39:54.738Z,28.20
2023-07-30T10:41:57.611Z,27.60
2023-07-30T10:44:00.605Z,27.90
2023-07-30T10:46:02.546Z,28.60
2023-07-30T10:48:07.433Z,28.80
2023-07-30T10:50:11.831Z,28.90
2023-07-30T10:52:13.804Z,28.70
2023-07-30T10:54:17.524Z,28.40
2023-07-30T10:56:25.698Z,28.70
2023-07-30T10:58:28.121Z,28.80
2023-07-30T11:00:29.903Z,28.80
2023-07-30T11:02:31.990Z,27.80
2023-07-30T11:04:36.821Z,27.40
2023-07-30T11:06:39.463Z,28.00
2023-07-30T11:08:42.672Z,28.70
2023-07-30T11:10:50.943Z,28.90
2023-07-30T11:12:52.884Z,29.00
2023-07-30T11:15:01.060Z,28.60
2023-07-30T11:17:03.771Z,28.50
2023-07-30T11:19:08.961Z,28.60
2023-07-30T11:21:11.733Z,28.70
2023-07-30T11:23:23.738Z,29.20
2023-07-30T11:25:25.535Z,29.50
2023-07-30T11:27:27.341Z,29.30
2023-07-30T11:29:29.301Z,29.20
2023-07-30T11:31:31.183Z,28.90
2023-07-30T11:33:33.580Z,29.20
2023-07-30T11:35:35.657Z,29.40
2023-07-30T11:37:41.142Z,29.00
2023-07-30T11:39:45.063Z,29.20
2023-07-30T11:41:47.257Z,29.10
2023-07-30T11:43:49.083Z,29.30
2023-07-30T11:46:06.780Z,29.00
2023-07-30T11:48:10.413Z,29.40
2023-07-30T11:50:12.363Z,29.90
2023-07-30T11:52:14.213Z,29.80
2023-07-30T11:54:23.868Z,29.90
2023-07-30T11:56:32.733Z,30.30
2023-07-30T11:58:34.531Z,30.70
2023-07-30T12:00:37.332Z,31.20
2023-07-30T12:02:40.054Z,31.20
2023-07-30T12:04:45.583Z,31.40
2023-07-30T12:06:47.542Z,31.10
2023-07-30T12:08:49.839Z,31.00
2023-07-30T12:10:53.583Z,30.70
2023-07-30T12:12:55.428Z,30.70
2023-07-30T12:14:57.293Z,30.40
2023-07-30T12:16:59.416Z,30.10
2023-07-30T12:19:01.200Z,29.70
2023-07-30T12:21:03.010Z,29.70
2023-07-30T12:23:04.805Z,29.40
2023-07-30T12:25:07.210Z,28.90
2023-07-30T12:27:09.056Z,29.10
2023-07-30T12:29:10.901Z,29.40
2023-07-30T12:31:12.759Z,29.20
2023-07-30T12:33:14.678Z,29.20
2023-07-30T12:35:16.499Z,29.60
2023-07-30T12:37:18.510Z,29.20
2023-07-30T12:39:20.346Z,28.80
2023-07-30T12:41:28.132Z,29.20
2023-07-30T12:43:30.190Z,29.30
2023-07-30T12:45:32.929Z,29.30
2023-07-30T12:47:36.647Z,29.30
2023-07-30T12:49:38.510Z,29.50
2023-07-30T12:51:40.636Z,29.60
2023-07-30T12:53:42.713Z,29.90
2023-07-30T12:55:44.536Z,30.60
2023-07-30T12:57:46.467Z,30.40
2023-07-30T12:59:48.235Z,29.90
2023-07-30T13:01:50.321Z,30.10
2023-07-30T13:03:53.077Z,29.80
2023-07-30T13:05:55.077Z,29.90
2023-07-30T13:07:56.882Z,30.30
2023-07-30T13:10:08.830Z,30.30
2023-07-30T13:12:10.767Z,29.90
2023-07-30T13:14:12.693Z,29.90
2023-07-30T13:16:14.534Z,29.80
2023-07-30T13:18:16.414Z,30.50
2023-07-30T13:20:20.150Z,30.70
2023-07-30T13:22:22.373Z,30.40
2023-07-30T13:24:24.208Z,30.60
2023-07-30T13:26:26.014Z,30.90
2023-07-30T13:28:27.877Z,29.50
2023-07-30T13:30:29.979Z,29.50
2023-07-30T13:32:31.770Z,30.30
2023-07-30T13:34:33.805Z,30.70
2023-07-30T13:36:35.607Z,31.00
2023-07-30T13:38:37.742Z,31.40
2023-07-30T13:40:39.583Z,31.40
2023-07-30T13:42:42.062Z,31.50
2023-07-30T13:44:43.978Z,31.50
2023-07-30T13:46:46.138Z,31.60
2023-07-30T13:48:48.196Z,31.80
2023-07-30T13:50:49.953Z,31.60
2023-07-30T13:52:51.976Z,31.10
2023-07-30T13:54:53.905Z,30.80
2023-07-30T13:56:55.810Z,30.70
2023-07-30T13:58:57.837Z,30.50
2023-07-30T14:00:59.837Z,30.50
2023-07-30T14:03:01.758Z,31.10
2023-07-30T14:05:04.110Z,31.20
2023-07-30T14:07:05.935Z,32.30
2023-07-30T14:09:07.783Z,33.00
2023-07-30T14:11:09.840Z,32.20
2023-07-30T14:13:11.690Z,31.30
2023-07-30T14:15:13.533Z,31.60
2023-07-30T14:17:16.984Z,33.80
2023-07-30T14:19:18.966Z,35.50
2023-07-30T14:21:20.777Z,36.10
2023-07-30T14:23:22.652Z,36.30
2023-07-30T14:25:24.465Z,34.40
2023-07-30T14:27:26.480Z,34.10
2023-07-30T14:29:28.341Z,34.70
2023-07-30T14:31:30.145Z,35.50
2023-07-30T14:33:32.115Z,35.00
2023-07-30T14:35:34.056Z,35.30
2023-07-30T14:37:36.023Z,36.50
2023-07-30T14:39:37.940Z,36.50
2023-07-30T14:41:40.240Z,34.90
2023-07-30T14:43:42.453Z,36.00
2023-07-30T14:45:44.279Z,32.80
2023-07-30T14:47:47.971Z,33.10
2023-07-30T14:49:52.713Z,33.90
2023-07-30T14:51:55.639Z,34.40
2023-07-30T14:53:57.724Z,35.20
2023-07-30T14:56:01.374Z,35.40
2023-07-30T14:58:04.578Z,35.90
2023-07-30T15:00:08.043Z,35.80
2023-07-30T15:02:10.120Z,35.50
2023-07-30T15:04:11.895Z,35.50
2023-07-30T15:06:13.746Z,35.10
2023-07-30T15:08:15.584Z,34.40
2023-07-30T15:10:18.372Z,34.70
2023-07-30T15:12:20.661Z,34.80
2023-07-30T15:14:22.464Z,35.10
2023-07-30T15:16:24.283Z,35.00
2023-07-30T15:18:26.149Z,34.90
2023-07-30T15:20:29.172Z,35.20
2023-07-30T15:22:30.968Z,33.90
2023-07-30T15:24:32.940Z,33.10
2023-07-30T15:26:34.758Z,33.80
2023-07-30T15:28:36.821Z,34.20
2023-07-30T15:30:39.697Z,34.40
2023-07-30T15:32:42.566Z,32.50
2023-07-30T15:34:44.398Z,33.90
2023-07-30T15:36:46.235Z,34.20
2023-07-30T15:38:52.665Z,35.20
2023-07-30T15:40:54.532Z,35.10
2023-07-30T15:42:56.396Z,33.80
2023-07-30T15:44:58.177Z,32.00
2023-07-30T15:47:00.367Z,31.20
2023-07-30T15:49:02.220Z,31.50
2023-07-30T15:51:04.143Z,30.70
2023-07-30T15:53:06.154Z,29.90
2023-07-30T15:55:08.118Z,29.50
2023-07-30T15:57:13.002Z,29.20
2023-07-30T15:59:14.943Z,29.00
2023-07-30T16:01:16.817Z,28.90
2023-07-30T16:03:18.724Z,28.80
2023-07-30T16:05:20.621Z,28.70
2023-07-30T16:07:22.478Z,28.60
2023-07-30T16:09:24.263Z,28.50
2023-07-30T16:11:27.573Z,28.30
2023-07-30T16:13:29.426Z,28.20
2023-07-30T16:15:31.262Z,28.10
2023-07-30T16:17:33.097Z,28.00
2023-07-30T16:19:34.963Z,28.00
2023-07-30T16:21:36.754Z,28.00
2023-07-30T16:23:38.785Z,27.90
2023-07-30T16:25:40.638Z,27.90
2023-07-30T16:27:42.439Z,27.90
2023-07-30T16:29:44.405Z,27.80
2023-07-30T16:31:46.277Z,27.80
2023-07-30T16:33:48.058Z,27.70
2023-07-30T16:35:50.157Z,27.70
2023-07-30T16:37:51.993Z,27.60
2023-07-30T16:39:54.716Z,27.60
2023-07-30T16:41:56.507Z,27.50
2023-07-30T16:43:58.326Z,27.60
2023-07-30T16:46:02.605Z,27.60
2023-07-30T16:48:05.084Z,27.50
2023-07-30T16:50:07.244Z,27.40
2023-07-30T16:52:09.077Z,27.40
2023-07-30T16:54:12.668Z,27.40
2023-07-30T16:56:15.691Z,27.70
2023-07-30T16:58:17.761Z,28.20
2023-07-30T17:00:19.822Z,28.70
2023-07-30T17:02:21.657Z,28.60
2023-07-30T17:04:23.555Z,27.50
2023-07-30T17:06:25.399Z,26.90
2023-07-30T17:08:27.550Z,25.50
2023-07-30T17:10:29.341Z,20.60
2023-07-30T17:12:31.141Z,21.60
2023-07-30T17:14:33.006Z,21.60
2023-07-30T17:16:34.938Z,21.50
2023-07-30T17:18:36.971Z,21.90
2023-07-30T17:20:38.792Z,21.50
2023-07-30T17:22:40.585Z,21.60
2023-07-30T17:24:42.365Z,21.90
2023-07-30T17:26:44.204Z,21.70
2023-07-30T17:28:46.078Z,21.80
2023-07-30T17:30:47.993Z,21.60
2023-07-30T17:32:50.080Z,21.40
2023-07-30T17:34:51.906Z,21.40
2023-07-30T17:36:53.686Z,21.40
2023-07-30T17:38:55.772Z,21.40
2023-07-30T17:40:57.676Z,21.10
2023-07-30T17:42:59.460Z,21.00
2023-07-30T17:45:01.411Z,20.50
2023-07-30T17:47:03.233Z,20.60
2023-07-30T17:49:06.095Z,20.50
2023-07-30T17:51:17.650Z,20.60
2023-07-30T17:53:19.494Z,20.50
2023-07-30T17:55:23.194Z,20.50
2023-07-30T17:57:25.780Z,20.50
2023-07-30T17:59:28.242Z,20.50
2023-07-30T18:01:30.280Z,20.40
2023-07-30T18:03:32.594Z,20.60
2023-07-30T18:05:46.287Z,20.60
2023-07-30T18:07:51.242Z,20.40
2023-07-30T18:09:54.577Z,20.60
2023-07-30T18:11:57.230Z,20.50
2023-07-30T18:13:59.014Z,20.60
2023-07-30T18:16:01.088Z,20.70
2023-07-30T18:18:05.272Z,20.70
2023-07-30T18:20:07.595Z,20.70
2023-07-30T18:22:09.489Z,20.70
2023-07-30T18:24:11.734Z,20.70
2023-07-30T18:26:14.358Z,20.70
2023-07-30T18:28:16.472Z,20.60
2023-07-30T18:30:18.435Z,20.60
2023-07-30T18:32:20.591Z,20.60
2023-07-30T18:34:22.487Z,20.60
2023-07-30T18:36:24.675Z,20.70
2023-07-30T18:38:28.965Z,20.70
2023-07-30T18:40:31.130Z,20.70
2023-07-30T18:42:33.319Z,20.70
2023-07-30T18:44:35.726Z,20.70
2023-07-30T18:46:37.753Z,20.60
2023-07-30T18:48:39.885Z,20.70
2023-07-30T18:50:41.810Z,20.80
2023-07-30T18:52:43.651Z,20.80
2023-07-30T18:54:45.640Z,20.80
2023-07-30T18:56:47.493Z,20.80
2023-07-30T18:58:52.070Z,20.80
2023-07-30T19:00:53.976Z,20.80
2023-07-30T19:02:55.963Z,20.80
2023-07-30T19:04:58.026Z,20.80
2023-07-30T19:06:59.959Z,20.90
2023-07-30T19:09:01.740Z,20.80
2023-07-30T19:11:03.882Z,20.80
2023-07-30T19:13:05.777Z,20.80
2023-07-30T19:15:08.389Z,20.70
2023-07-30T19:17:10.506Z,20.70
2023-07-30T19:19:12.837Z,20.70
2023-07-30T19:21:14.622Z,20.60
2023-07-30T19:23:16.489Z,20.60
2023-07-30T19:25:18.870Z,20.70
2023-07-30T19:27:20.659Z,20.60
2023-07-30T19:29:22.513Z,20.60
2023-07-30T19:31:24.365Z,20.60
2023-07-30T19:33:26.260Z,20.70
2023-07-30T19:35:37.561Z,20.80
2023-07-30T19:37:47.204Z,20.80
2023-07-30T19:39:49.207Z,20.80
2023-07-30T19:41:52.854Z,20.90
2023-07-30T19:43:54.692Z,20.90
2023-07-30T19:45:56.532Z,20.80
2023-07-30T19:47:58.860Z,20.70
2023-07-30T19:50:04.514Z,20.60
2023-07-30T19:52:11.096Z,20.70
2023-07-30T19:54:13.678Z,20.70
2023-07-30T19:56:15.481Z,20.60
2023-07-30T19:58:25.314Z,20.70
2023-07-30T20:00:27.214Z,20.60
2023-07-30T20:02:29.034Z,20.60
2023-07-30T20:04:30.856Z,20.60
2023-07-30T20:06:32.752Z,20.50
2023-07-30T20:08:35.009Z,20.60
2023-07-30T20:10:36.789Z,20.60
2023-07-30T20:12:38.838Z,20.50
2023-07-30T20:14:40.614Z,20.50
2023-07-30T20:16:42.730Z,20.50
2023-07-30T20:18:44.796Z,20.60
2023-07-30T20:20:46.581Z,20.70
2023-07-30T20:22:50.375Z,20.60
2023-07-30T20:24:52.248Z,20.60
2023-07-30T20:26:54.054Z,20.50
2023-07-30T20:28:59.899Z,20.60
2023-07-30T20:31:01.712Z,20.50
2023-07-30T20:33:03.916Z,20.60
2023-07-30T20:35:06.566Z,20.60
2023-07-30T20:37:08.424Z,20.60
2023-07-30T20:39:10.212Z,20.60
2023-07-30T20:41:12.168Z,20.60
2023-07-30T20:43:14.007Z,20.50
2023-07-30T20:45:15.889Z,20.40
2023-07-30T20:47:17.698Z,20.60
2023-07-30T20:49:19.509Z,20.70
2023-07-30T20:51:21.606Z,20.70
2023-07-30T20:53:23.547Z,20.70
2023-07-30T20:55:26.304Z,20.70
2023-07-30T20:57:28.169Z,20.70
2023-07-30T20:59:30.182Z,20.40
2023-07-30T21:01:32.031Z,20.10
2023-07-30T21:03:33.976Z,20.10
2023-07-30T21:05:35.895Z,20.20
2023-07-30T21:07:38.183Z,20.50
2023-07-30T21:09:39.976Z,20.30
2023-07-30T21:11:41.930Z,20.10
2023-07-30T21:13:43.771Z,20.20
2023-07-30T21:15:51.695Z,20.50
2023-07-30T21:17:53.613Z,20.70
2023-07-30T21:19:55.455Z,20.70
2023-07-30T21:21:57.252Z,20.90
2023-07-30T21:23:59.019Z,21.20
2023-07-30T21:26:02.105Z,21.30
2023-07-30T21:28:03.972Z,21.30
2023-07-30T21:30:08.017Z,21.40
2023-07-30T21:32:10.077Z,21.40
2023-07-30T21:34:12.096Z,21.30
2023-07-30T21:36:13.974Z,21.30
2023-07-30T21:38:15.784Z,21.30
2023-07-30T21:40:17.615Z,21.10
2023-07-30T21:42:19.376Z,21.00
2023-07-30T21:44:21.223Z,20.80
2023-07-30T21:46:23.007Z,20.70
2023-07-30T21:48:24.809Z,20.60
2023-07-30T21:50:26.643Z,20.70
2023-07-30T21:52:29.088Z,20.70
2023-07-30T21:54:30.877Z,20.60
2023-07-30T21:56:32.691Z,20.50
2023-07-30T21:58:34.536Z,20.40
2023-07-30T22:00:36.325Z,20.40
2023-07-30T22:02:38.384Z,20.30
2023-07-30T22:04:40.247Z,20.40
2023-07-30T22:06:42.264Z,20.50
2023-07-30T22:08:44.234Z,20.50
2023-07-30T22:10:46.824Z,20.40
2023-07-30T22:12:48.764Z,20.40
2023-07-30T22:14:50.927Z,20.40
2023-07-30T22:16:52.820Z,20.40
2023-07-30T22:18:54.663Z,20.40
2023-07-30T22:20:56.523Z,20.30
2023-07-30T22:22:58.448Z,20.30
2023-07-30T22:25:00.281Z,20.30
2023-07-30T22:27:02.111Z,20.30
2023-07-30T22:29:03.857Z,20.30
2023-07-30T22:31:05.727Z,20.20
2023-07-30T22:33:07.598Z,20.20
2023-07-30T22:35:09.512Z,20.10
2023-07-30T22:37:11.316Z,20.20
2023-07-30T22:39:13.217Z,20.20
2023-07-30T22:41:15.049Z,20.20
2023-07-30T22:43:16.951Z,20.30
2023-07-30T22:45:18.809Z,20.20
2023-07-30T22:47:20.635Z,20.20
2023-07-30T22:49:22.465Z,20.30
2023-07-30T22:51:24.274Z,20.40
2023-07-30T22:53:26.176Z,20.40
2023-07-30T22:55:27.956Z,20.40
2023-07-30T22:57:29.763Z,20.40
2023-07-30T22:59:31.772Z,20.40
2023-07-30T23:01:33.593Z,20.50
2023-07-30T23:03:35.493Z,20.50
2023-07-30T23:05:38.482Z,20.50
2023-07-30T23:07:41.506Z,20.40
2023-07-30T23:09:46.029Z,20.30
2023-07-30T23:11:47.864Z,20.10
2023-07-30T23:13:49.632Z,20.10
2023-07-30T23:15:51.501Z,20.00
2023-07-30T23:17:53.383Z,19.90
2023-07-30T23:19:55.227Z,20.00
2023-07-30T23:21:57.094Z,20.00
2023-07-30T23:23:58.883Z,20.10
2023-07-30T23:26:00.645Z,20.10
2023-07-30T23:28:02.499Z,20.10
2023-07-30T23:30:07.051Z,20.00
2023-07-30T23:32:08.746Z,19.90
2023-07-30T23:34:10.599Z,19.90
2023-07-30T23:36:12.469Z,19.80
2023-07-30T23:38:14.367Z,19.80
2023-07-30T23:40:16.169Z,19.90
2023-07-30T23:42:17.936Z,19.90
2023-07-30T23:44:19.710Z,20.00
2023-07-30T23:46:21.609Z,20.00
2023-07-30T23:48:25.231Z,19.90
2023-07-30T23:50:27.108Z,20.00
2023-07-30T23:52:28.922Z,20.00
2023-07-30T23:54:33.129Z,20.20
2023-07-30T23:56:34.919Z,20.20
2023-07-30T23:58:36.765Z,20.20
